Time;durP1;ratioP1;P1;durP2;ratioP2;P2;SDS_P1;SDS_P2;PMS_P1;PMS_P2;Temp;Humidity;BMP_temperature;BMP_pressure;BME280_temperature;BME280_humidity;BME280_pressure;Samples;Min_cycle;Max_cycle;Signal;HPM_P1;HPM_P2
2023/05/27 00:01:19;;;;;;;23.15;6.82;;;;;;;8.04;100.00;162666.34;5071019;28;20045;-65
2023/05/27 00:03:46;;;;;;;20.60;6.40;;;;;;;8.00;100.00;162655.59;5069460;28;20044;-65
2023/05/27 00:06:11;;;;;;;19.40;8.63;;;;;;;7.97;100.00;162647.47;5070653;28;20552;-64
2023/05/27 00:08:37;;;;;;;20.58;8.85;;;;;;;7.93;100.00;162638.03;5068137;28;20040;-64
2023/05/27 00:11:02;;;;;;;14.15;5.80;;;;;;;7.89;100.00;162628.63;5071045;28;20384;-64
2023/05/27 00:13:28;;;;;;;23.10;10.23;;;;;;;7.87;100.00;162621.88;5068952;28;20055;-64
2023/05/27 00:15:53;;;;;;;34.80;12.05;;;;;;;7.84;100.00;162613.78;5070737;28;20021;-64
2023/05/27 00:18:18;;;;;;;15.48;6.63;;;;;;;7.80;100.00;162604.34;5069514;28;20020;-64
2023/05/27 00:20:44;;;;;;;23.35;6.43;;;;;;;7.77;100.00;162596.28;5070492;28;20074;-63
2023/05/27 00:23:09;;;;;;;17.02;8.65;;;;;;;7.74;100.00;162588.19;5070872;28;20027;-63
2023/05/27 00:25:35;;;;;;;17.17;7.63;;;;;;;7.72;100.00;162584.16;5069172;28;20057;-63
2023/05/27 00:28:00;;;;;;;23.23;7.63;;;;;;;7.70;100.00;162578.75;5070651;28;20479;-64
2023/05/27 00:30:26;;;;;;;27.10;11.27;;;;;;;7.70;100.00;162577.44;5069023;28;20083;-64
2023/05/27 00:32:51;;;;;;;22.67;7.38;;;;;;;7.67;100.00;162569.31;5065435;28;20430;-64
2023/05/27 00:35:16;;;;;;;24.65;6.75;;;;;;;7.63;100.00;162561.22;5065861;28;20048;-64
2023/05/27 00:37:42;;;;;;;27.67;7.88;;;;;;;7.61;100.00;162555.88;5070253;28;20032;-64
2023/05/27 00:40:10;;;;;;;23.27;7.45;;;;;;;7.55;100.00;162538.34;5069154;28;20372;-64
2023/05/27 00:42:36;;;;;;;14.38;4.40;;;;;;;7.57;100.00;162543.75;5070669;28;20028;-64
2023/05/27 00:45:02;;;;;;;23.20;7.97;;;;;;;7.54;100.00;162537.00;5068837;28;20052;-64
2023/05/27 00:47:31;;;;;;;17.35;8.88;;;;;;;7.54;100.00;162535.63;5070479;28;20032;-64
2023/05/27 00:49:57;;;;;;;15.45;8.00;;;;;;;7.47;100.00;162518.16;5069166;28;20455;-64
2023/05/27 00:52:22;;;;;;;21.95;8.80;;;;;;;7.49;100.00;162523.50;5070200;28;20094;-64
2023/05/27 00:54:48;;;;;;;25.58;7.70;;;;;;;7.47;100.00;162518.16;5068544;28;20040;-65
2023/05/27 00:57:13;;;;;;;20.42;9.60;;;;;;;7.42;100.00;162504.66;5070580;28;20070;-65
2023/05/27 00:59:39;;;;;;;23.67;8.07;;;;;;;7.42;100.00;162504.66;5068282;28;20514;-65
2023/05/27 01:02:05;;;;;;;19.20;7.15;;;;;;;7.36;100.00;162489.88;5070407;28;20044;-65
2023/05/27 01:04:30;;;;;;;29.25;9.48;;;;;;;7.36;100.00;162488.50;5068539;28;20055;-65
2023/05/27 01:07:02;;;;;;;15.75;5.75;;;;;;;7.34;100.00;162483.09;5070163;28;20032;-65
2023/05/27 01:09:52;;;;;;;31.20;8.93;;;;;;;7.33;100.00;162480.44;5068963;28;20463;-65
2023/05/27 01:12:36;;;;;;;15.85;7.03;;;;;;;7.29;100.00;162471.00;5070725;28;20032;-65
2023/05/27 01:15:05;;;;;;;24.42;8.65;;;;;;;7.26;100.00;162462.91;5068888;28;20495;-63
2023/05/27 01:17:32;;;;;;;19.33;8.43;;;;;;;7.26;100.00;162462.91;5070081;28;20134;-63
2023/05/27 01:19:59;;;;;;;16.33;7.45;;;;;;;7.23;100.00;162456.19;5068905;28;20044;-63
2023/05/27 01:22:29;;;;;;;22.95;7.63;;;;;;;7.18;100.00;162442.72;5070381;28;20556;-63
2023/05/27 01:24:55;;;;;;;19.80;7.75;;;;;;;7.16;100.00;162437.31;5068944;28;20183;-63
2023/05/27 01:27:24;;;;;;;19.25;8.38;;;;;;;7.12;100.00;162426.53;5070219;28;20107;-64
2023/05/27 01:29:51;;;;;;;28.20;10.40;;;;;;;7.10;100.00;162421.19;5068579;28;20040;-63
2023/05/27 01:32:41;;;;;;;44.10;11.25;;;;;;;7.06;100.00;162411.75;5069778;28;20029;-64
2023/05/27 01:35:34;;;;;;;19.13;7.65;;;;;;;7.04;100.00;162404.97;5068719;28;20041;-64
2023/05/27 01:38:06;;;;;;;23.33;8.48;;;;;;;7.02;100.00;162400.94;5070243;28;20082;-62
2023/05/27 01:40:33;;;;;;;16.08;7.93;;;;;;;7.02;100.00;162399.63;5068467;28;20044;-65
2023/05/27 01:43:00;;;;;;;26.45;9.80;;;;;;;7.02;100.00;162399.63;5069656;28;20032;-63
2023/05/27 01:45:26;;;;;;;21.48;8.25;;;;;;;6.95;100.00;162382.09;5072148;28;20128;-63
2023/05/27 01:47:51;;;;;;;18.05;10.10;;;;;;;6.99;100.00;162394.22;5065261;28;20100;-63
2023/05/27 01:50:16;;;;;;;23.42;12.25;;;;;;;6.97;100.00;162388.81;5062164;28;20628;-63
2023/05/27 01:52:42;;;;;;;28.85;12.50;;;;;;;6.97;100.00;162388.81;5073409;28;20364;-64
2023/05/27 01:55:07;;;;;;;20.13;10.88;;;;;;;6.93;100.00;162378.06;5072169;28;20040;-64
2023/05/27 01:57:33;;;;;;;30.77;8.48;;;;;;;6.91;100.00;162371.34;5072849;28;20040;-64
2023/05/27 01:59:58;;;;;;;30.67;11.05;;;;;;;6.88;100.00;162364.63;5072036;28;20036;-64
2023/05/27 02:02:23;;;;;;;18.20;8.50;;;;;;;6.86;100.00;162357.84;5072986;28;20040;-64
2023/05/27 02:04:49;;;;;;;19.90;8.82;;;;;;;6.84;100.00;162353.81;5071353;28;20403;-64
2023/05/27 02:07:16;;;;;;;26.23;9.55;;;;;;;6.82;100.00;162348.41;5073215;28;20024;-64
2023/05/27 02:09:41;;;;;;;24.30;10.15;;;;;;;6.79;100.00;162340.38;5070203;28;20416;-64
2023/05/27 02:12:07;;;;;;;18.08;7.55;;;;;;;6.75;100.00;162329.56;5072927;28;20032;-64
2023/05/27 02:14:34;;;;;;;24.08;7.68;;;;;;;6.71;100.00;162318.81;5071650;28;20044;-64
2023/05/27 02:17:00;;;;;;;16.25;8.68;;;;;;;6.70;100.00;162316.13;5071620;28;20056;-64
2023/05/27 02:19:25;;;;;;;24.05;8.95;;;;;;;6.66;100.00;162308.03;5071547;28;20080;-64
2023/05/27 02:21:51;;;;;;;20.23;7.30;;;;;;;6.60;100.00;162291.88;5072898;28;20024;-64
2023/05/27 02:24:16;;;;;;;22.88;8.90;;;;;;;6.52;100.00;162270.31;5071728;28;20379;-64
2023/05/27 02:26:41;;;;;;;17.95;9.68;;;;;;;6.44;100.00;162248.84;5072297;28;20028;-65
2023/05/27 02:29:07;;;;;;;21.05;8.57;;;;;;;6.42;100.00;162243.44;5071534;28;20016;-65
2023/05/27 02:31:32;;;;;;;18.25;9.15;;;;;;;6.38;100.00;162234.03;5072540;28;20633;-65
2023/05/27 02:33:57;;;;;;;19.33;8.18;;;;;;;6.35;100.00;162227.28;5072797;28;20043;-65
2023/05/27 02:36:23;;;;;;;20.15;8.50;;;;;;;6.32;100.00;162219.19;5071246;28;20044;-65
2023/05/27 02:38:49;;;;;;;29.60;11.73;;;;;;;6.31;100.00;162216.50;5072506;28;20475;-65
2023/05/27 02:41:14;;;;;;;23.33;7.45;;;;;;;6.27;100.00;162204.38;5071163;28;20051;-65
2023/05/27 02:43:40;;;;;;;16.50;8.38;;;;;;;6.20;100.00;162186.91;5072070;28;20028;-64
2023/05/27 02:46:05;;;;;;;24.95;9.52;;;;;;;6.15;100.00;162173.41;5071272;28;20045;-64
2023/05/27 02:48:30;;;;;;;19.38;8.07;;;;;;;6.13;100.00;162168.06;5071858;28;20032;-64
2023/05/27 02:50:56;;;;;;;17.60;7.65;;;;;;;6.14;100.00;162170.75;5070659;28;20553;-64
2023/05/27 02:53:21;;;;;;;21.83;8.52;;;;;;;6.07;100.00;162151.94;5072577;28;20450;-64
2023/05/27 02:55:46;;;;;;;23.63;10.13;;;;;;;6.09;100.00;162157.28;5069624;28;20037;-64
2023/05/27 02:58:12;;;;;;;27.77;10.32;;;;;;;6.08;100.00;162154.56;5072073;28;20043;-64
2023/05/27 03:00:37;;;;;;;28.80;14.77;;;;;;;6.09;100.00;162157.28;5070614;28;20059;-65
2023/05/27 03:03:05;;;;;;;17.20;9.15;;;;;;;6.08;100.00;162155.94;5072682;28;20024;-64
2023/05/27 03:05:30;;;;;;;22.90;9.18;;;;;;;6.07;100.00;162151.94;5070138;28;20049;-65
2023/05/27 03:07:55;;;;;;;14.45;6.43;;;;;;;6.02;100.00;162141.13;5072245;28;20028;-65
2023/05/27 03:10:21;;;;;;;29.85;9.93;;;;;;;6.02;100.00;162141.13;5070456;28;20036;-65
2023/05/27 03:12:46;;;;;;;22.83;9.23;;;;;;;6.02;100.00;162141.13;5071373;28;20029;-65
2023/05/27 03:15:11;;;;;;;23.33;8.52;;;;;;;6.04;100.00;162145.16;5070909;28;20037;-66
2023/05/27 03:17:37;;;;;;;23.27;9.20;;;;;;;6.06;100.00;162149.22;5071839;28;20055;-66
2023/05/27 03:20:04;;;;;;;26.00;13.25;;;;;;;6.08;100.00;162154.56;5070223;28;20059;-65
2023/05/27 03:22:30;;;;;;;22.60;10.65;;;;;;;6.09;100.00;162158.66;5071865;28;20024;-65
2023/05/27 03:24:55;;;;;;;25.95;7.95;;;;;;;6.11;100.00;162164.00;5070143;28;20560;-63
2023/05/27 03:27:21;;;;;;;23.95;9.70;;;;;;;6.11;100.00;162162.66;5071514;28;20569;-63
2023/05/27 03:29:47;;;;;;;17.65;8.50;;;;;;;6.11;100.00;162162.66;5070380;28;20045;-63
2023/05/27 03:32:12;;;;;;;19.73;9.93;;;;;;;6.12;100.00;162165.38;5071917;28;20033;-64
2023/05/27 03:34:37;;;;;;;25.80;12.23;;;;;;;6.11;100.00;162162.66;5069680;28;20203;-64
2023/05/27 03:37:03;;;;;;;21.88;11.02;;;;;;;5.98;100.00;162128.97;5071647;28;20028;-64
2023/05/27 03:39:28;;;;;;;23.05;11.68;;;;;;;6.11;100.00;162162.66;5069795;28;20049;-65
2023/05/27 03:41:54;;;;;;;45.03;11.30;;;;;;;6.13;100.00;162168.06;5071053;28;20078;-65
2023/05/27 03:44:19;;;;;;;48.33;12.80;;;;;;;6.08;100.00;162154.56;5069966;28;20025;-65
2023/05/27 03:46:45;;;;;;;18.75;9.88;;;;;;;6.13;100.00;162169.38;5071467;28;20035;-65
2023/05/27 03:49:10;;;;;;;30.88;11.55;;;;;;;6.11;100.00;162164.00;5069575;28;20028;-65
2023/05/27 03:51:35;;;;;;;14.52;8.82;;;;;;;6.12;100.00;162165.38;5071209;28;20021;-65
2023/05/27 03:54:01;;;;;;;27.42;11.90;;;;;;;6.12;100.00;162165.38;5068794;28;20036;-65
2023/05/27 03:56:26;;;;;;;30.60;9.65;;;;;;;6.00;100.00;162134.41;5069277;28;20455;-66
2023/05/27 03:58:52;;;;;;;34.80;10.45;;;;;;;6.08;100.00;162154.56;5071115;28;20031;-65
2023/05/27 04:01:17;;;;;;;16.77;8.40;;;;;;;6.16;100.00;162176.13;5069567;28;20415;-65
2023/05/27 04:03:43;;;;;;;30.17;11.65;;;;;;;6.19;100.00;162184.22;5069194;28;20033;-65
2023/05/27 04:06:09;;;;;;;39.55;14.43;;;;;;;6.19;100.00;162184.22;5069416;28;20094;-65
2023/05/27 04:08:35;;;;;;;14.40;8.23;;;;;;;6.18;100.00;162181.50;5070685;28;20036;-65
2023/05/27 04:11:01;;;;;;;24.83;10.23;;;;;;;6.14;100.00;162172.09;5069256;28;20041;-65
2023/05/27 04:13:27;;;;;;;27.45;10.73;;;;;;;6.18;100.00;162181.50;5070511;28;20094;-63
2023/05/27 04:15:53;;;;;;;17.52;9.23;;;;;;;6.20;100.00;162186.91;5069128;28;20040;-64
2023/05/27 04:18:19;;;;;;;25.23;8.82;;;;;;;6.25;100.00;162199.03;5070277;28;20028;-63
2023/05/27 04:20:46;;;;;;;18.20;8.65;;;;;;;6.28;100.00;162207.06;5068855;28;20043;-63
2023/05/27 04:23:12;;;;;;;27.80;10.55;;;;;;;6.35;100.00;162225.91;5070507;28;20024;-64
2023/05/27 04:25:39;;;;;;;25.13;11.27;;;;;;;6.29;100.00;162211.09;5068397;28;20451;-64
2023/05/27 04:28:05;;;;;;;21.90;9.00;;;;;;;6.34;100.00;162223.22;5070386;28;20029;-64
2023/05/27 04:30:31;;;;;;;31.60;12.30;;;;;;;6.33;100.00;162221.91;5068802;28;20036;-63
2023/05/27 04:32:56;;;;;;;24.35;12.07;;;;;;;6.37;100.00;162230.00;5068973;28;20055;-64
2023/05/27 04:35:23;;;;;;;40.50;16.83;;;;;;;6.41;100.00;162240.75;5069515;28;20047;-64
2023/05/27 04:37:48;;;;;;;30.17;12.07;;;;;;;6.44;100.00;162248.84;5070714;28;20122;-63
2023/05/27 04:40:14;;;;;;;31.65;13.85;;;;;;;6.48;100.00;162259.59;5069083;28;20441;-63
2023/05/27 04:42:39;;;;;;;18.25;10.73;;;;;;;6.50;100.00;162264.97;5070661;28;20074;-64
2023/05/27 04:45:06;;;;;;;38.70;19.73;;;;;;;6.54;100.00;162275.72;5067713;28;20755;-64
2023/05/27 04:47:32;;;;;;;25.00;11.65;;;;;;;6.62;100.00;162295.94;5067930;28;20028;-64
2023/05/27 04:50:00;;;;;;;25.70;10.38;;;;;;;6.65;100.00;162305.38;5068794;28;20119;-64
2023/05/27 04:52:26;;;;;;;25.50;11.75;;;;;;;6.68;100.00;162312.09;5069668;28;20032;-65
2023/05/27 04:54:51;;;;;;;42.65;11.80;;;;;;;6.84;100.00;162353.81;5066884;28;20052;-65
2023/05/27 04:57:18;;;;;;;21.33;8.85;;;;;;;6.93;100.00;162378.06;5070330;28;20467;-64
2023/05/27 05:02:34;;;;;;;15.27;8.93;;;;;;;7.05;100.00;162409.03;5068618;28;20056;-64
2023/05/27 05:05:04;;;;;;;24.08;9.88;;;;;;;7.13;100.00;162430.59;5066958;28;20045;-64
2023/05/27 05:07:30;;;;;;;19.05;10.32;;;;;;;7.22;100.00;162453.47;5068820;28;20537;-64
2023/05/27 05:09:56;;;;;;;34.72;13.07;;;;;;;7.29;100.00;162471.00;5066712;28;20055;-65
2023/05/27 05:12:22;;;;;;;30.13;11.85;;;;;;;7.36;100.00;162488.50;5070058;28;20024;-66
2023/05/27 05:14:47;;;;;;;21.92;8.55;;;;;;;7.40;100.00;162500.63;5068294;28;20041;-66
2023/05/27 05:17:14;;;;;;;29.38;10.45;;;;;;;7.55;100.00;162538.34;5068780;28;20048;-66
2023/05/27 05:19:39;;;;;;;29.17;11.10;;;;;;;7.67;100.00;162569.31;5069601;28;20047;-64
2023/05/27 05:22:04;;;;;;;25.35;10.80;;;;;;;7.73;100.00;162585.47;5054075;28;20028;-65
2023/05/27 05:24:30;;;;;;;23.40;9.80;;;;;;;7.87;100.00;162623.22;5054830;28;20052;-64
2023/05/27 05:26:55;;;;;;;22.33;8.27;;;;;;;7.94;100.00;162642.06;5073682;28;20023;-64
2023/05/27 05:29:21;;;;;;;20.80;7.95;;;;;;;8.05;100.00;162669.03;5070693;28;20513;-63
2023/05/27 05:31:46;;;;;;;29.30;8.15;;;;;;;8.17;100.00;162700.03;5066328;28;20098;-65
2023/05/27 05:34:11;;;;;;;36.15;11.90;;;;;;;8.30;100.00;162733.75;5071760;28;20052;-65
2023/05/27 05:36:37;;;;;;;27.45;11.00;;;;;;;8.43;100.00;162768.78;5071964;28;20016;-67
2023/05/27 05:39:03;;;;;;;23.42;11.77;;;;;;;8.54;100.00;162798.47;5070744;28;20554;-65
2023/05/27 05:41:29;;;;;;;32.22;12.65;;;;;;;8.68;100.00;162833.50;5073726;28;20067;-65
2023/05/27 05:43:54;;;;;;;24.77;8.75;;;;;;;8.83;100.00;162873.94;5071565;28;20162;-65
2023/05/27 05:46:20;;;;;;;19.45;9.70;;;;;;;8.89;100.00;162890.19;5072388;28;20028;-66
2023/05/27 05:48:45;;;;;;;20.67;8.25;;;;;;;9.06;100.00;162933.28;5070753;28;20032;-66
2023/05/27 05:51:10;;;;;;;24.27;9.80;;;;;;;9.16;100.00;162960.28;5072900;28;20029;-66
2023/05/27 05:53:36;;;;;;;21.30;9.55;;;;;;;9.32;100.00;163000.75;5071537;28;20020;-67
2023/05/27 05:56:01;;;;;;;25.25;10.52;;;;;;;9.35;100.00;163008.81;5071841;28;20414;-66
2023/05/27 05:58:27;;;;;;;23.63;8.75;;;;;;;9.50;100.00;163049.28;5071648;28;20514;-65
2023/05/27 06:00:52;;;;;;;21.58;7.93;;;;;;;9.57;100.00;163065.50;5072907;28;20049;-66
2023/05/27 06:03:17;;;;;;;30.13;9.65;;;;;;;9.67;100.00;163092.44;5071400;28;20037;-66
2023/05/27 06:05:43;;;;;;;12.75;6.50;;;;;;;9.78;100.00;163122.16;5071103;28;20043;-66
2023/05/27 06:08:08;;;;;;;37.35;9.43;;;;;;;9.93;100.00;163159.94;5072829;28;20028;-66
2023/05/27 06:10:34;;;;;;;31.83;11.10;;;;;;;10.01;100.00;163181.53;5069681;28;20037;-66
2023/05/27 06:12:59;;;;;;;34.83;11.02;;;;;;;10.13;100.00;163213.88;5072679;28;20024;-66
2023/05/27 06:15:26;;;;;;;20.10;6.65;;;;;;;10.24;100.00;163240.91;5071361;28;20395;-62
2023/05/27 06:17:53;;;;;;;25.33;9.63;;;;;;;10.33;100.00;163265.16;5066199;28;20036;-66
2023/05/27 06:20:18;;;;;;;35.58;11.07;;;;;;;10.44;100.00;163294.91;5070343;28;20045;-66
2023/05/27 06:22:46;;;;;;;26.95;7.68;;;;;;;10.63;100.00;163344.88;5072419;28;20365;-65
2023/05/27 06:25:11;;;;;;;23.63;9.95;;;;;;;10.70;100.00;163362.38;5070736;28;20068;-62
2023/05/27 06:27:37;;;;;;;14.18;6.93;;;;;;;10.85;100.00;163400.19;5072496;28;20028;-61
2023/05/27 06:30:03;;;;;;;34.75;9.32;;;;;;;10.94;100.00;163424.50;5069782;28;20033;-62
2023/05/27 06:32:28;;;;;;;35.65;10.82;;;;;;;11.02;100.00;163444.78;5072184;28;20034;-62
2023/05/27 06:34:53;;;;;;;24.45;7.53;;;;;;;11.13;100.00;163473.13;5070976;28;20040;-62
2023/05/27 06:37:19;;;;;;;20.95;6.82;;;;;;;11.03;100.00;163448.81;5072465;28;20032;-62
2023/05/27 06:39:44;;;;;;;22.25;8.43;;;;;;;11.09;100.00;163465.00;5070463;28;20040;-62
2023/05/27 06:42:10;;;;;;;23.17;8.35;;;;;;;11.27;100.00;163510.94;5072575;28;20479;-62
2023/05/27 06:44:35;;;;;;;18.50;6.15;;;;;;;11.37;100.00;163537.91;5070838;28;20384;-61
2023/05/27 06:47:01;;;;;;;26.85;9.38;;;;;;;11.70;100.00;163624.38;5071759;28;20048;-62
2023/05/27 06:49:27;;;;;;;16.27;6.65;;;;;;;11.94;100.00;163686.50;5070665;28;20431;-62
2023/05/27 06:51:53;;;;;;;20.42;6.63;;;;;;;12.06;100.00;163718.97;5071984;28;20028;-61
2023/05/27 06:54:18;;;;;;;22.65;7.35;;;;;;;12.20;100.00;163755.47;5069258;28;20045;-63
2023/05/27 06:56:43;;;;;;;16.67;7.00;;;;;;;12.42;100.00;163812.22;5071731;28;20391;-62
2023/05/27 06:59:09;;;;;;;21.60;7.75;;;;;;;12.63;100.00;163867.59;5070522;28;20032;-61
2023/05/27 07:01:34;;;;;;;36.90;8.85;;;;;;;12.90;100.00;163937.91;5071171;28;20052;-62
2023/05/27 07:04:00;;;;;;;22.30;6.30;;;;;;;13.04;100.00;163973.03;5070569;28;20036;-62
2023/05/27 07:06:25;;;;;;;17.88;6.57;;;;;;;13.26;100.00;164032.53;5071819;28;20039;-64
2023/05/27 07:08:50;;;;;;;16.63;7.35;;;;;;;13.44;100.00;164078.56;5069786;28;20036;-62
2023/05/27 07:11:16;;;;;;;19.13;6.35;;;;;;;13.48;100.00;164090.69;5071905;28;20047;-62
2023/05/27 07:13:41;;;;;;;23.63;6.80;;;;;;;13.64;100.00;164131.25;5070383;28;20036;-62
2023/05/27 07:16:06;;;;;;;14.88;7.03;;;;;;;13.67;100.00;164138.00;5071498;28;20035;-62
2023/05/27 07:18:32;;;;;;;21.27;7.25;;;;;;;13.88;100.00;164193.47;5070370;28;20036;-62
2023/05/27 07:20:57;;;;;;;20.90;7.85;;;;;;;13.72;100.00;164151.56;5071651;28;20471;-62
2023/05/27 07:23:22;;;;;;;29.30;7.90;;;;;;;13.55;100.00;164106.97;5069865;28;20024;-61
2023/05/27 07:25:48;;;;;;;18.92;7.82;;;;;;;13.52;100.00;164100.16;5071376;28;20028;-62
2023/05/27 07:28:13;;;;;;;17.35;8.55;;;;;;;13.57;100.00;164112.31;5071583;28;20032;-62
2023/05/27 07:30:38;;;;;;;21.35;7.80;;;;;;;13.66;100.00;164135.34;5069290;28;20040;-62
2023/05/27 07:33:04;;;;;;;22.70;7.80;;;;;;;13.80;100.00;164174.53;5070653;28;20459;-62
2023/05/27 07:35:29;;;;;;;27.67;6.20;;;;;;;13.96;100.00;164216.47;5069105;28;20125;-64
2023/05/27 07:37:55;;;;;;;15.30;5.30;;;;;;;14.03;100.00;164232.72;5070584;28;20020;-64
2023/05/27 07:40:20;;;;;;;23.50;7.97;;;;;;;14.27;100.00;164297.63;5069497;28;20044;-62
2023/05/27 07:42:45;;;;;;;19.75;6.88;;;;;;;14.21;100.00;164280.06;5069839;28;20036;-63
2023/05/27 07:45:11;;;;;;;19.05;6.50;;;;;;;14.35;100.00;164316.56;5069233;28;20097;-64
2023/05/27 07:47:36;;;;;;;18.50;7.88;;;;;;;14.67;100.00;164400.50;5070806;28;20020;-64
2023/05/27 07:50:03;;;;;;;19.98;7.30;;;;;;;14.77;100.00;164427.59;5069014;28;20097;-64
2023/05/27 07:52:28;;;;;;;16.98;6.45;;;;;;;14.86;100.00;164451.91;5070338;28;20029;-64
2023/05/27 07:54:54;;;;;;;22.80;8.23;;;;;;;15.13;100.00;164522.31;5069403;28;20115;-64
2023/05/27 07:57:19;;;;;;;22.00;7.53;;;;;;;15.27;100.00;164557.50;5069594;28;20025;-64
2023/05/27 07:59:44;;;;;;;18.75;6.63;;;;;;;15.40;100.00;164592.69;5068920;28;20045;-64
2023/05/27 08:02:10;;;;;;;14.68;6.47;;;;;;;15.63;100.00;164653.66;5070764;28;20090;-63
2023/05/27 08:04:35;;;;;;;19.60;8.15;;;;;;;15.78;100.00;164692.88;5069198;28;20040;-63
2023/05/27 08:07:00;;;;;;;24.20;7.45;;;;;;;15.80;100.00;164696.94;5070455;28;20685;-64
2023/05/27 08:09:26;;;;;;;25.58;8.38;;;;;;;15.70;100.00;164671.22;5069200;28;20033;-63
2023/05/27 08:11:51;;;;;;;14.73;6.68;;;;;;;15.90;100.00;164722.75;5070612;28;20020;-64
2023/05/27 08:14:16;;;;;;;19.27;8.93;;;;;;;16.03;100.00;164757.94;5069291;28;20036;-63
2023/05/27 08:16:42;;;;;;;29.17;7.75;;;;;;;16.11;100.00;164779.63;5070380;28;20024;-64
2023/05/27 08:19:08;;;;;;;18.63;6.43;;;;;;;15.90;100.00;164722.75;5069347;28;20495;-64
2023/05/27 08:21:33;;;;;;;22.60;8.50;;;;;;;15.86;100.00;164714.59;5067123;28;20475;-64
2023/05/27 08:23:58;;;;;;;29.35;8.93;;;;;;;16.09;100.00;164774.19;5067945;28;20469;-64
2023/05/27 08:26:25;;;;;;;19.05;5.25;;;;;;;16.35;100.00;164841.88;5070530;28;20078;-64
2023/05/27 08:28:50;;;;;;;17.55;7.93;;;;;;;16.42;100.00;164860.84;5068607;28;20067;-64
2023/05/27 08:31:16;;;;;;;16.52;5.85;;;;;;;16.53;100.00;164887.94;5070229;28;20483;-64
2023/05/27 08:33:41;;;;;;;23.25;7.25;;;;;;;16.78;100.00;164955.72;5068623;28;20040;-63
2023/05/27 08:36:07;;;;;;;17.58;7.70;;;;;;;16.97;100.00;165004.50;5070637;28;20025;-63
2023/05/27 08:38:32;;;;;;;21.70;8.93;;;;;;;16.96;100.00;165003.19;5068235;28;20479;-63
2023/05/27 08:40:58;;;;;;;20.95;7.53;;;;;;;17.19;100.00;165061.41;5070215;28;20099;-64
2023/05/27 08:43:24;;;;;;;22.00;9.80;;;;;;;17.29;100.00;165088.53;5068808;28;20032;-63
2023/05/27 08:45:50;;;;;;;14.15;7.75;;;;;;;17.48;100.00;165137.28;5069733;28;20024;-64
2023/05/27 08:48:15;;;;;;;18.13;8.25;;;;;;;-146.58;100.00;69501.63;5070344;28;20486;-64
2023/05/27 08:50:41;;;;;;;14.75;7.18;;;;;;;-146.58;100.00;69501.63;5068591;28;20044;-64
2023/05/27 08:53:08;;;;;;;24.27;8.60;;;;;;;-146.58;100.00;69501.63;5070044;28;20021;-64
2023/05/27 08:55:34;;;;;;;18.38;6.75;;;;;;;-146.58;100.00;69501.63;5072845;28;20495;-64
2023/05/27 08:58:01;;;;;;;22.98;8.05;;;;;;;-146.58;100.00;69501.63;5070417;28;20021;-63
2023/05/27 09:00:27;;;;;;;20.85;7.07;;;;;;;-146.58;100.00;69501.63;5072162;28;20036;-63
2023/05/27 09:02:56;;;;;;;15.88;6.93;;;;;;;-146.58;100.00;69501.63;5074115;28;20027;-64
2023/05/27 09:05:22;;;;;;;15.38;7.30;;;;;;;-146.58;100.00;69501.63;5072389;28;20040;-64
2023/05/27 09:07:47;;;;;;;21.02;7.47;;;;;;;-146.58;100.00;69501.63;5073785;28;20047;-63
2023/05/27 09:10:13;;;;;;;20.80;8.00;;;;;;;-146.58;100.00;69501.63;5072431;28;20036;-64
2023/05/27 09:12:43;;;;;;;21.40;8.02;;;;;;;-146.58;100.00;69501.63;5073558;28;20036;-66
2023/05/27 09:15:09;;;;;;;22.60;9.10;;;;;;;17.48;100.00;165137.28;5067410;28;20036;-64
2023/05/27 09:17:40;;;;;;;10.50;5.25;;;;;;;18.41;100.00;165382.72;5073625;28;20032;-64
2023/05/27 09:20:07;;;;;;;21.98;7.28;;;;;;;18.56;100.00;165422.06;5071899;28;20457;-64
2023/05/27 09:22:32;;;;;;;18.63;7.23;;;;;;;18.85;100.00;165498.00;5072297;28;20386;-64
2023/05/27 09:24:58;;;;;;;13.45;6.20;;;;;;;18.63;100.00;165439.66;5072099;28;20566;-64
2023/05/27 09:27:27;;;;;;;13.20;7.07;;;;;;;18.82;100.00;165489.84;5073565;28;20091;-64
2023/05/27 09:29:54;;;;;;;13.27;6.25;;;;;;;19.06;100.00;165553.69;5062437;28;20044;-63
2023/05/27 09:32:31;;;;;;;13.85;6.68;;;;;;;18.90;100.00;165511.56;5054123;28;20391;-64
2023/05/27 09:35:00;;;;;;;17.88;8.20;;;;;;;19.13;100.00;165572.69;5052300;28;20045;-63
2023/05/27 09:37:33;;;;;;;16.40;7.47;;;;;;;19.42;100.00;165647.25;5053362;28;20025;-65
2023/05/27 09:40:06;;;;;;;18.90;6.32;;;;;;;19.38;100.00;165636.44;5052304;28;20045;-64
2023/05/27 09:42:48;;;;;;;19.50;7.05;;;;;;;19.58;100.00;165690.69;5053681;28;20067;-65
2023/05/27 09:45:18;;;;;;;20.23;7.40;;;;;;;19.33;100.00;165625.56;5051785;28;20073;-65
2023/05/27 09:47:53;;;;;;;17.10;7.80;;;;;;;19.58;100.00;165690.69;5053358;28;20025;-64
2023/05/27 09:50:20;;;;;;;11.43;6.45;;;;;;;19.75;100.00;165735.47;5051741;28;20055;-65
2023/05/27 09:52:47;;;;;;;29.38;9.80;;;;;;;19.84;100.00;165757.19;5053146;28;20071;-64
2023/05/27 09:55:13;;;;;;;16.08;6.15;;;;;;;19.69;100.00;165717.84;5052150;28;20040;-64
2023/05/27 09:57:43;;;;;;;15.88;7.00;;;;;;;19.92;100.00;165780.28;5053090;28;20033;-64
2023/05/27 10:00:17;;;;;;;18.80;6.50;;;;;;;19.99;100.00;165796.59;5051219;28;20041;-63
2023/05/27 10:02:46;;;;;;;12.13;4.90;;;;;;;20.00;100.00;165799.28;5053293;28;20024;-64
2023/05/27 10:05:17;;;;;;;13.77;5.60;;;;;;;19.95;100.00;165788.44;5051376;28;20492;-64
2023/05/27 10:07:44;;;;;;;13.90;6.50;;;;;;;19.98;100.00;165795.22;5052785;28;20024;-65
2023/05/27 10:10:16;;;;;;;13.18;6.80;;;;;;;20.17;100.00;165845.44;5051477;28;20045;-64
2023/05/27 10:12:43;;;;;;;12.52;7.43;;;;;;;20.22;100.00;165859.00;5052766;28;20033;-64
2023/05/27 10:15:09;;;;;;;17.95;7.22;;;;;;;20.47;100.00;165922.84;5051492;28;20037;-65
2023/05/27 10:17:48;;;;;;;12.82;5.93;;;;;;;20.65;100.00;165971.69;5052907;28;20114;-65
2023/05/27 10:20:33;;;;;;;16.95;5.82;;;;;;;20.70;100.00;165983.91;5064572;28;20119;-64
2023/05/27 10:23:15;;;;;;;16.75;6.07;;;;;;;20.81;100.00;166013.84;5072846;28;20039;-63
2023/05/27 10:25:46;;;;;;;15.98;6.03;;;;;;;20.86;100.00;166027.41;5071246;28;20539;-63
2023/05/27 10:28:26;;;;;;;16.95;6.72;;;;;;;21.07;100.00;166081.72;5072720;28;20078;-63
2023/05/27 10:30:52;;;;;;;16.27;6.68;;;;;;;21.26;100.00;166131.97;5070343;28;20149;-63
2023/05/27 10:33:28;;;;;;;14.35;6.80;;;;;;;21.10;100.00;166089.88;5072867;28;20475;-64
2023/05/27 10:35:54;;;;;;;16.13;5.80;;;;;;;20.87;100.00;166030.13;5049666;28;20056;-63
2023/05/27 10:38:19;;;;;;;14.27;5.30;;;;;;;20.81;100.00;166013.84;5050008;28;20029;-63
2023/05/27 10:40:46;;;;;;;10.25;4.85;;;;;;;21.03;100.00;166070.88;5070901;28;20040;-63
2023/05/27 10:43:18;;;;;;;13.40;5.70;;;;;;;20.11;100.00;165829.16;5072756;28;20021;-64
2023/05/27 10:45:45;;;;;;;21.02;7.43;;;;;;;20.50;100.00;165932.34;5071027;28;20419;-63
2023/05/27 10:48:18;;;;;;;13.02;5.38;;;;;;;20.59;100.00;165956.72;5072809;28;20060;-63
2023/05/27 10:50:51;;;;;;;15.18;8.38;;;;;;;20.95;100.00;166049.16;5070671;28;20047;-63
2023/05/27 10:53:21;;;;;;;19.65;6.30;;;;;;;21.10;100.00;166089.88;5066440;28;20082;-64
2023/05/27 10:55:49;;;;;;;12.55;5.88;;;;;;;21.08;100.00;166084.44;5070861;28;20037;-64
2023/05/27 10:58:18;;;;;;;18.15;5.97;;;;;;;21.16;100.00;166104.78;5072516;28;20031;-64
2023/05/27 11:00:47;;;;;;;20.80;7.20;;;;;;;21.29;100.00;166140.13;5070475;28;20135;-64
2023/05/27 11:03:23;;;;;;;15.93;7.25;;;;;;;21.42;100.00;166174.03;5072436;28;20025;-64
2023/05/27 11:06:04;;;;;;;19.70;9.73;;;;;;;21.50;100.00;166195.78;5067193;28;20052;-64
2023/05/27 11:08:31;;;;;;;15.75;6.25;;;;;;;21.40;100.00;166170.00;5052853;28;20031;-64
2023/05/27 11:11:05;;;;;;;13.88;6.60;;;;;;;21.77;100.00;166265.09;5071316;28;20400;-64
2023/05/27 11:13:42;;;;;;;15.40;6.30;;;;;;;21.94;100.00;166309.94;5070323;28;20378;-63